PHL weather

Philadelphia International Airport
Philadelphia, Pennsylvania, United States

Public forecast

Using degrees Fahrenheit for public forecast. Weather courtesy of forecast.io.

Current aviation weather report (METAR) for Philadelphia International Airport

Retrieved 2020/01/23 09:54 UTC (38 minutes ago):

KPHL 230954Z 00000KT 10SM SCT280 M03/M07 A3042 RMK AO2 SLP299 T10331072

Aviation forecast (TAF) for Philadelphia International Airport

Retrieved 2020/01/23 06:26 UTC (4 hours ago):

TAF KPHL 230520Z 2306/2412 VRB03KT P6SM SCT250 FM231500 24004KT P6SM BKN250 FM240100 VRB02KT P6SM BKN250